sensor_id;sensor_type;location;lat;lon;timestamp;pressure;altitude;pressure_sealevel;temperature;humidity
71151;BME280;59071;42.138;24.768;2023-05-24T00:01:25;99372.59;;;18.66;64.60
71151;BME280;59071;42.138;24.768;2023-05-24T00:03:51;99376.19;;;18.92;63.96
71151;BME280;59071;42.138;24.768;2023-05-24T00:06:17;99380.53;;;19.09;63.34
71151;BME280;59071;42.138;24.768;2023-05-24T00:08:43;99371.34;;;19.00;63.62
71151;BME280;59071;42.138;24.768;2023-05-24T00:11:08;99358.16;;;19.13;63.18
71151;BME280;59071;42.138;24.768;2023-05-24T00:13:35;99348.97;;;19.09;62.52
71151;BME280;59071;42.138;24.768;2023-05-24T00:16:00;99357.34;;;19.18;62.60
71151;BME280;59071;42.138;24.768;2023-05-24T00:18:25;99366.22;;;19.34;61.74
71151;BME280;59071;42.138;24.768;2023-05-24T00:20:50;99372.44;;;19.34;61.05
71151;BME280;59071;42.138;24.768;2023-05-24T00:23:17;99377.84;;;19.45;60.71
71151;BME280;59071;42.138;24.768;2023-05-24T00:25:42;99370.53;;;19.50;60.63
71151;BME280;59071;42.138;24.768;2023-05-24T00:28:07;99372.16;;;19.57;60.17
71151;BME280;59071;42.138;24.768;2023-05-24T00:30:33;99372.16;;;19.57;60.37
71151;BME280;59071;42.138;24.768;2023-05-24T00:32:58;99372.19;;;19.51;60.36
71151;BME280;59071;42.138;24.768;2023-05-24T00:35:23;99370.25;;;19.57;60.07
71151;BME280;59071;42.138;24.768;2023-05-24T00:37:48;99362.97;;;19.47;60.75
71151;BME280;59071;42.138;24.768;2023-05-24T00:40:14;99357.59;;;19.17;61.10
71151;BME280;59071;42.138;24.768;2023-05-24T00:42:40;99354.66;;;19.08;61.63
71151;BME280;59071;42.138;24.768;2023-05-24T00:45:05;99349.25;;;19.08;61.49
71151;BME280;59071;42.138;24.768;2023-05-24T00:47:31;99351.69;;;19.25;60.72
71151;BME280;59071;42.138;24.768;2023-05-24T00:49:56;99347.63;;;19.27;60.40
71151;BME280;59071;42.138;24.768;2023-05-24T00:52:22;99346.00;;;19.01;61.58
71151;BME280;59071;42.138;24.768;2023-05-24T00:54:47;99350.25;;;18.66;62.35
71151;BME280;59071;42.138;24.768;2023-05-24T00:57:12;99340.56;;;18.70;61.82
71151;BME280;59071;42.138;24.768;2023-05-24T00:59:38;99342.72;;;18.68;61.97
71151;BME280;59071;42.138;24.768;2023-05-24T01:02:04;99335.44;;;18.73;61.65
71151;BME280;59071;42.138;24.768;2023-05-24T01:04:29;99338.16;;;18.94;61.17
71151;BME280;59071;42.138;24.768;2023-05-24T01:09:32;99334.13;;;18.91;60.59
71151;BME280;59071;42.138;24.768;2023-05-24T01:25:32;99334.34;;;17.91;63.52
71151;BME280;59071;42.138;24.768;2023-05-24T01:27:20;99326.22;;;17.86;63.90
71151;BME280;59071;42.138;24.768;2023-05-24T01:29:46;99328.59;;;18.30;62.51
71151;BME280;59071;42.138;24.768;2023-05-24T01:32:18;99331.25;;;18.25;62.53
71151;BME280;59071;42.138;24.768;2023-05-24T01:34:43;99331.97;;;18.00;62.74
71151;BME280;59071;42.138;24.768;2023-05-24T01:37:08;99329.66;;;17.76;63.75
71151;BME280;59071;42.138;24.768;2023-05-24T01:39:34;99336.28;;;17.58;64.53
71151;BME280;59071;42.138;24.768;2023-05-24T01:49:51;99333.88;;;17.24;65.74
71151;BME280;59071;42.138;24.768;2023-05-24T01:52:21;99335.09;;;17.44;64.99
71151;BME280;59071;42.138;24.768;2023-05-24T01:54:51;99339.22;;;17.56;64.61
71151;BME280;59071;42.138;24.768;2023-05-24T01:57:17;99342.13;;;17.87;63.39
71151;BME280;59071;42.138;24.768;2023-05-24T01:59:43;99348.75;;;18.17;62.43
71151;BME280;59071;42.138;24.768;2023-05-24T02:02:09;99348.69;;;18.12;61.80
71151;BME280;59071;42.138;24.768;2023-05-24T02:04:35;99354.94;;;18.23;62.10
71151;BME280;59071;42.138;24.768;2023-05-24T02:07:00;99358.69;;;18.16;61.74
71151;BME280;59071;42.138;24.768;2023-05-24T02:09:25;99361.09;;;18.18;62.22
71151;BME280;59071;42.138;24.768;2023-05-24T02:11:51;99368.16;;;18.29;61.78
71151;BME280;59071;42.138;24.768;2023-05-24T02:14:16;99374.88;;;18.22;61.66
71151;BME280;59071;42.138;24.768;2023-05-24T02:16:43;99381.59;;;18.19;61.81
71151;BME280;59071;42.138;24.768;2023-05-24T02:19:11;99388.31;;;18.22;61.89
71151;BME280;59071;42.138;24.768;2023-05-24T02:21:36;99378.44;;;18.43;61.14
71151;BME280;59071;42.138;24.768;2023-05-24T02:24:01;99373.88;;;18.38;61.36
71151;BME280;59071;42.138;24.768;2023-05-24T02:26:27;99379.00;;;18.40;61.60
71151;BME280;59071;42.138;24.768;2023-05-24T02:28:52;99377.06;;;18.30;61.55
71151;BME280;59071;42.138;24.768;2023-05-24T02:31:17;99378.50;;;17.95;62.70
71151;BME280;59071;42.138;24.768;2023-05-24T02:33:43;99384.88;;;18.31;61.31
71151;BME280;59071;42.138;24.768;2023-05-24T02:36:08;99382.75;;;18.33;61.03
71151;BME280;59071;42.138;24.768;2023-05-24T02:38:33;99387.03;;;18.34;61.07
71151;BME280;59071;42.138;24.768;2023-05-24T02:41:01;99396.50;;;18.42;60.48
71151;BME280;59071;42.138;24.768;2023-05-24T02:43:26;99399.16;;;18.32;61.10
71151;BME280;59071;42.138;24.768;2023-05-24T02:45:51;99406.63;;;18.14;62.06
71151;BME280;59071;42.138;24.768;2023-05-24T02:48:17;99399.75;;;17.54;64.26
71151;BME280;59071;42.138;24.768;2023-05-24T02:50:42;99401.47;;;17.06;66.55
71151;BME280;59071;42.138;24.768;2023-05-24T02:53:07;99405.00;;;17.11;66.45
71151;BME280;59071;42.138;24.768;2023-05-24T02:55:33;99398.84;;;17.43;65.75
71151;BME280;59071;42.138;24.768;2023-05-24T02:57:58;99402.06;;;17.08;65.76
71151;BME280;59071;42.138;24.768;2023-05-24T03:00:23;99409.59;;;16.61;68.47
71151;BME280;59071;42.138;24.768;2023-05-24T03:02:48;99402.25;;;15.91;70.94
71151;BME280;59071;42.138;24.768;2023-05-24T03:05:15;99406.38;;;15.98;71.86
71151;BME280;59071;42.138;24.768;2023-05-24T03:07:40;99401.22;;;16.58;69.53
71151;BME280;59071;42.138;24.768;2023-05-24T03:10:06;99405.72;;;16.96;67.89
71151;BME280;59071;42.138;24.768;2023-05-24T03:12:32;99406.25;;;16.98;67.37
71151;BME280;59071;42.138;24.768;2023-05-24T03:14:57;99395.09;;;17.12;66.03
71151;BME280;59071;42.138;24.768;2023-05-24T03:17:22;99390.59;;;17.23;66.37
71151;BME280;59071;42.138;24.768;2023-05-24T03:19:48;99387.75;;;17.34;66.12
71151;BME280;59071;42.138;24.768;2023-05-24T03:22:13;99399.09;;;17.42;65.79
71151;BME280;59071;42.138;24.768;2023-05-24T03:24:38;99393.28;;;17.23;66.58
71151;BME280;59071;42.138;24.768;2023-05-24T03:27:04;99398.59;;;17.45;65.34
71151;BME280;59071;42.138;24.768;2023-05-24T03:29:30;99405.72;;;17.61;64.88
71151;BME280;59071;42.138;24.768;2023-05-24T03:31:55;99394.72;;;17.68;64.55
71151;BME280;59071;42.138;24.768;2023-05-24T03:34:20;99396.22;;;17.86;64.04
71151;BME280;59071;42.138;24.768;2023-05-24T03:36:46;99405.97;;;17.92;64.11
71151;BME280;59071;42.138;24.768;2023-05-24T03:39:11;99403.69;;;18.21;63.25
71151;BME280;59071;42.138;24.768;2023-05-24T03:41:36;99403.22;;;18.45;62.41
71151;BME280;59071;42.138;24.768;2023-05-24T03:44:02;99402.44;;;18.44;62.23
71151;BME280;59071;42.138;24.768;2023-05-24T03:46:27;99396.75;;;18.41;61.36
71151;BME280;59071;42.138;24.768;2023-05-24T03:48:52;99394.69;;;18.63;60.61
71151;BME280;59071;42.138;24.768;2023-05-24T03:51:17;99398.31;;;18.94;59.88
71151;BME280;59071;42.138;24.768;2023-05-24T03:53:43;99401.00;;;19.15;58.66
71151;BME280;59071;42.138;24.768;2023-05-24T03:56:09;99394.28;;;19.64;57.56
71151;BME280;59071;42.138;24.768;2023-05-24T03:58:34;99398.53;;;20.11;56.82
71151;BME280;59071;42.138;24.768;2023-05-24T04:00:59;99396.78;;;20.46;55.30
71151;BME280;59071;42.138;24.768;2023-05-24T04:03:25;99403.50;;;20.64;54.31
71151;BME280;59071;42.138;24.768;2023-05-24T04:05:50;99408.06;;;20.68;54.30
71151;BME280;59071;42.138;24.768;2023-05-24T04:08:16;99406.84;;;20.90;54.32
71151;BME280;59071;42.138;24.768;2023-05-24T04:10:41;99397.28;;;21.42;52.48
71151;BME280;59071;42.138;24.768;2023-05-24T04:13:07;99394.84;;;21.75;51.95
71151;BME280;59071;42.138;24.768;2023-05-24T04:15:32;99405.13;;;22.02;51.21
71151;BME280;59071;42.138;24.768;2023-05-24T04:17:57;99405.72;;;22.48;50.33
71151;BME280;59071;42.138;24.768;2023-05-24T04:20:24;99406.78;;;22.90;49.53
71151;BME280;59071;42.138;24.768;2023-05-24T04:22:51;99410.44;;;22.99;49.43
71151;BME280;59071;42.138;24.768;2023-05-24T04:25:16;99416.84;;;23.27;47.96
71151;BME280;59071;42.138;24.768;2023-05-24T04:27:42;99414.94;;;23.60;46.75
71151;BME280;59071;42.138;24.768;2023-05-24T04:30:08;99417.38;;;23.76;46.15
71151;BME280;59071;42.138;24.768;2023-05-24T04:32:34;99403.38;;;23.88;46.08
71151;BME280;59071;42.138;24.768;2023-05-24T04:35:00;99404.56;;;24.09;45.77
71151;BME280;59071;42.138;24.768;2023-05-24T04:37:29;99407.09;;;24.33;44.98
71151;BME280;59071;42.138;24.768;2023-05-24T04:39:55;99399.34;;;24.54;43.89
71151;BME280;59071;42.138;24.768;2023-05-24T04:42:21;99395.50;;;24.55;43.61
71151;BME280;59071;42.138;24.768;2023-05-24T04:44:46;99402.53;;;25.07;42.14
71151;BME280;59071;42.138;24.768;2023-05-24T04:47:12;99402.31;;;25.17;41.56
71151;BME280;59071;42.138;24.768;2023-05-24T04:49:37;99400.00;;;25.78;40.43
71151;BME280;59071;42.138;24.768;2023-05-24T04:52:03;99399.41;;;25.90;40.01
71151;BME280;59071;42.138;24.768;2023-05-24T04:54:29;99406.94;;;26.24;38.89
71151;BME280;59071;42.138;24.768;2023-05-24T04:56:54;99411.56;;;26.64;38.65
71151;BME280;59071;42.138;24.768;2023-05-24T04:59:19;99406.59;;;27.09;38.06
71151;BME280;59071;42.138;24.768;2023-05-24T05:01:45;99406.44;;;27.49;37.19
71151;BME280;59071;42.138;24.768;2023-05-24T05:04:10;99410.97;;;27.93;36.05
71151;BME280;59071;42.138;24.768;2023-05-24T05:06:36;99417.53;;;28.09;34.96
71151;BME280;59071;42.138;24.768;2023-05-24T05:09:07;99420.41;;;28.13;34.37
71151;BME280;59071;42.138;24.768;2023-05-24T05:11:37;99423.72;;;28.57;34.10
71151;BME280;59071;42.138;24.768;2023-05-24T05:14:02;99421.34;;;28.17;34.09
71151;BME280;59071;42.138;24.768;2023-05-24T05:16:28;99422.31;;;28.51;34.00
71151;BME280;59071;42.138;24.768;2023-05-24T05:18:53;99425.38;;;29.00;33.45
71151;BME280;59071;42.138;24.768;2023-05-24T05:21:18;99426.44;;;28.27;34.39
71151;BME280;59071;42.138;24.768;2023-05-24T05:23:44;99419.00;;;29.08;33.18
71151;BME280;59071;42.138;24.768;2023-05-24T05:26:09;99430.13;;;29.45;32.62
71151;BME280;59071;42.138;24.768;2023-05-24T05:28:35;99422.31;;;29.89;32.65
71151;BME280;59071;42.138;24.768;2023-05-24T05:31:00;99422.09;;;29.28;32.62
71151;BME280;59071;42.138;24.768;2023-05-24T05:33:26;99436.56;;;28.35;34.31
71151;BME280;59071;42.138;24.768;2023-05-24T05:35:51;99437.25;;;29.04;33.55
71151;BME280;59071;42.138;24.768;2023-05-24T05:38:16;99434.91;;;29.69;32.71
71151;BME280;59071;42.138;24.768;2023-05-24T05:40:41;99435.81;;;30.31;32.06
71151;BME280;59071;42.138;24.768;2023-05-24T05:43:07;99429.06;;;30.66;31.81
71151;BME280;59071;42.138;24.768;2023-05-24T05:45:33;99433.09;;;31.09;30.83
71151;BME280;59071;42.138;24.768;2023-05-24T05:47:58;99432.66;;;31.63;30.64
71151;BME280;59071;42.138;24.768;2023-05-24T05:50:23;99431.44;;;31.92;29.72
71151;BME280;59071;42.138;24.768;2023-05-24T05:52:49;99434.84;;;32.02;29.28
71151;BME280;59071;42.138;24.768;2023-05-24T05:55:14;99427.59;;;31.81;29.93
71151;BME280;59071;42.138;24.768;2023-05-24T05:57:39;99438.03;;;32.04;29.63
71151;BME280;59071;42.138;24.768;2023-05-24T06:00:05;99433.22;;;32.32;29.52
71151;BME280;59071;42.138;24.768;2023-05-24T06:02:31;99442.72;;;32.35;29.25
71151;BME280;59071;42.138;24.768;2023-05-24T06:04:56;99439.03;;;32.98;28.58
71151;BME280;59071;42.138;24.768;2023-05-24T06:07:21;99446.81;;;33.31;28.30
71151;BME280;59071;42.138;24.768;2023-05-24T06:09:46;99447.16;;;33.49;28.00
71151;BME280;59071;42.138;24.768;2023-05-24T06:12:12;99445.84;;;33.63;27.87
71151;BME280;59071;42.138;24.768;2023-05-24T06:14:37;99454.22;;;34.13;27.66
71151;BME280;59071;42.138;24.768;2023-05-24T06:17:03;99445.72;;;33.36;27.92
71151;BME280;59071;42.138;24.768;2023-05-24T06:19:29;99458.50;;;32.70;28.63
71151;BME280;59071;42.138;24.768;2023-05-24T06:21:55;99449.84;;;33.46;27.95
71151;BME280;59071;42.138;24.768;2023-05-24T06:24:20;99454.94;;;33.63;27.97
71151;BME280;59071;42.138;24.768;2023-05-24T06:26:46;99459.56;;;33.59;28.24
71151;BME280;59071;42.138;24.768;2023-05-24T06:29:11;99466.09;;;33.71;28.51
71151;BME280;59071;42.138;24.768;2023-05-24T06:31:37;99461.44;;;33.75;28.22
71151;BME280;59071;42.138;24.768;2023-05-24T06:34:03;99459.06;;;34.19;27.93
71151;BME280;59071;42.138;24.768;2023-05-24T06:36:28;99459.94;;;34.23;27.74
71151;BME280;59071;42.138;24.768;2023-05-24T06:38:53;99464.00;;;34.83;26.41
71151;BME280;59071;42.138;24.768;2023-05-24T06:41:19;99454.56;;;34.61;26.81
71151;BME280;59071;42.138;24.768;2023-05-24T06:43:44;99464.00;;;35.13;26.26
71151;BME280;59071;42.138;24.768;2023-05-24T06:46:10;99460.03;;;35.44;26.21
71151;BME280;59071;42.138;24.768;2023-05-24T06:48:35;99462.59;;;34.96;25.48
71151;BME280;59071;42.138;24.768;2023-05-24T06:51:01;99459.78;;;35.23;26.14
71151;BME280;59071;42.138;24.768;2023-05-24T06:53:26;99459.03;;;34.96;26.36
71151;BME280;59071;42.138;24.768;2023-05-24T06:55:51;99462.31;;;34.02;27.50
71151;BME280;59071;42.138;24.768;2023-05-24T06:58:16;99464.63;;;34.00;26.96
71151;BME280;59071;42.138;24.768;2023-05-24T07:00:42;99455.00;;;33.67;27.23
71151;BME280;59071;42.138;24.768;2023-05-24T07:03:09;99450.78;;;33.96;26.51
71151;BME280;59071;42.138;24.768;2023-05-24T07:05:35;99451.22;;;34.21;26.78
71151;BME280;59071;42.138;24.768;2023-05-24T07:08:00;99439.03;;;34.49;26.73
71151;BME280;59071;42.138;24.768;2023-05-24T07:10:26;99439.78;;;35.37;26.39
71151;BME280;59071;42.138;24.768;2023-05-24T07:12:51;99439.81;;;35.74;25.55
71151;BME280;59071;42.138;24.768;2023-05-24T07:15:16;99445.88;;;35.91;24.77
71151;BME280;59071;42.138;24.768;2023-05-24T07:17:41;99440.78;;;35.96;25.48
71151;BME280;59071;42.138;24.768;2023-05-24T07:20:07;99444.06;;;36.09;24.97
71151;BME280;59071;42.138;24.768;2023-05-24T07:22:35;99445.31;;;35.71;25.35
71151;BME280;59071;42.138;24.768;2023-05-24T07:25:01;99434.03;;;35.53;25.21
71151;BME280;59071;42.138;24.768;2023-05-24T07:27:26;99438.03;;;35.21;25.93
71151;BME280;59071;42.138;24.768;2023-05-24T07:29:52;99443.25;;;36.05;24.56
71151;BME280;59071;42.138;24.768;2023-05-24T07:32:18;99446.41;;;36.59;23.92
71151;BME280;59071;42.138;24.768;2023-05-24T07:34:43;99442.34;;;37.12;23.61
71151;BME280;59071;42.138;24.768;2023-05-24T07:37:08;99441.59;;;37.22;23.56
71151;BME280;59071;42.138;24.768;2023-05-24T07:39:34;99438.84;;;37.15;23.30
71151;BME280;59071;42.138;24.768;2023-05-24T07:41:59;99435.97;;;37.04;22.94
71151;BME280;59071;42.138;24.768;2023-05-24T07:44:25;99437.56;;;37.09;23.59
71151;BME280;59071;42.138;24.768;2023-05-24T07:46:50;99434.91;;;37.37;23.57
71151;BME280;59071;42.138;24.768;2023-05-24T07:49:16;99433.88;;;36.76;24.16
71151;BME280;59071;42.138;24.768;2023-05-24T07:51:41;99435.34;;;37.47;23.21
71151;BME280;59071;42.138;24.768;2023-05-24T07:54:06;99427.09;;;37.83;22.73
71151;BME280;59071;42.138;24.768;2023-05-24T07:56:32;99426.34;;;36.73;23.19
71151;BME280;59071;42.138;24.768;2023-05-24T07:58:57;99436.56;;;36.62;23.37
71151;BME280;59071;42.138;24.768;2023-05-24T08:01:31;99433.38;;;36.59;23.48
71151;BME280;59071;42.138;24.768;2023-05-24T08:03:58;99432.13;;;37.27;23.59
71151;BME280;59071;42.138;24.768;2023-05-24T08:06:24;99435.41;;;37.83;23.15
71151;BME280;59071;42.138;24.768;2023-05-24T08:08:49;99430.47;;;36.38;24.28
71151;BME280;59071;42.138;24.768;2023-05-24T08:11:15;99426.44;;;35.42;24.68
71151;BME280;59071;42.138;24.768;2023-05-24T08:13:40;99430.13;;;35.95;23.60
71151;BME280;59071;42.138;24.768;2023-05-24T08:16:05;99423.75;;;34.85;25.08
71151;BME280;59071;42.138;24.768;2023-05-24T08:18:31;99423.59;;;34.71;24.60
71151;BME280;59071;42.138;24.768;2023-05-24T08:20:57;99422.50;;;34.03;26.62
71151;BME280;59071;42.138;24.768;2023-05-24T08:23:22;99427.81;;;34.38;25.78
71151;BME280;59071;42.138;24.768;2023-05-24T08:25:47;99430.06;;;33.83;26.32
71151;BME280;59071;42.138;24.768;2023-05-24T08:28:13;99419.03;;;34.59;25.43
71151;BME280;59071;42.138;24.768;2023-05-24T08:30:38;99424.16;;;35.89;24.13
71151;BME280;59071;42.138;24.768;2023-05-24T08:33:03;99428.13;;;36.44;23.01
71151;BME280;59071;42.138;24.768;2023-05-24T08:35:28;99424.00;;;36.82;24.13
71151;BME280;59071;42.138;24.768;2023-05-24T08:37:54;99423.16;;;36.71;23.44
71151;BME280;59071;42.138;24.768;2023-05-24T08:40:19;99428.69;;;36.71;22.93
71151;BME280;59071;42.138;24.768;2023-05-24T08:42:45;99420.16;;;37.12;22.30
71151;BME280;59071;42.138;24.768;2023-05-24T08:45:11;99429.34;;;36.46;23.31
71151;BME280;59071;42.138;24.768;2023-05-24T08:47:37;99430.41;;;36.27;23.91
71151;BME280;59071;42.138;24.768;2023-05-24T08:50:02;99427.41;;;36.06;23.44
71151;BME280;59071;42.138;24.768;2023-05-24T08:52:28;99431.63;;;37.10;23.00
71151;BME280;59071;42.138;24.768;2023-05-24T08:54:56;99426.28;;;37.68;22.79
71151;BME280;59071;42.138;24.768;2023-05-24T08:57:22;99425.88;;;37.59;21.84
71151;BME280;59071;42.138;24.768;2023-05-24T08:59:48;99415.56;;;38.02;21.28
71151;BME280;59071;42.138;24.768;2023-05-24T09:02:14;99418.75;;;37.68;21.79
71151;BME280;59071;42.138;24.768;2023-05-24T09:04:41;99427.53;;;38.10;21.75
71151;BME280;59071;42.138;24.768;2023-05-24T09:07:08;99424.72;;;38.06;21.86
71151;BME280;59071;42.138;24.768;2023-05-24T09:09:34;99419.97;;;38.14;21.31
71151;BME280;59071;42.138;24.768;2023-05-24T09:12:03;99414.78;;;37.69;21.23
71151;BME280;59071;42.138;24.768;2023-05-24T09:14:29;99419.56;;;37.94;21.37
71151;BME280;59071;42.138;24.768;2023-05-24T09:16:55;99415.91;;;37.50;21.34
71151;BME280;59071;42.138;24.768;2023-05-24T09:19:20;99422.31;;;37.69;21.67
71151;BME280;59071;42.138;24.768;2023-05-24T09:21:46;99421.16;;;37.95;21.90
71151;BME280;59071;42.138;24.768;2023-05-24T09:24:13;99414.78;;;38.05;21.56
71151;BME280;59071;42.138;24.768;2023-05-24T09:26:39;99420.38;;;37.91;21.37
71151;BME280;59071;42.138;24.768;2023-05-24T09:29:07;99419.94;;;37.92;21.05
71151;BME280;59071;42.138;24.768;2023-05-24T09:31:33;99406.41;;;37.48;21.36
71151;BME280;59071;42.138;24.768;2023-05-24T09:33:59;99405.28;;;38.06;21.21
71151;BME280;59071;42.138;24.768;2023-05-24T09:36:25;99405.66;;;38.19;20.76
71151;BME280;59071;42.138;24.768;2023-05-24T09:39:17;99413.41;;;37.06;21.06
71151;BME280;59071;42.138;24.768;2023-05-24T09:41:42;99411.63;;;37.71;20.99
71151;BME280;59071;42.138;24.768;2023-05-24T09:44:07;99405.22;;;37.49;20.18
71151;BME280;59071;42.138;24.768;2023-05-24T09:46:35;99414.28;;;37.24;20.82
71151;BME280;59071;42.138;24.768;2023-05-24T09:49:02;99404.47;;;37.77;20.66
71151;BME280;59071;42.138;24.768;2023-05-24T09:51:28;99404.41;;;37.41;20.68
71151;BME280;59071;42.138;24.768;2023-05-24T09:53:57;99396.88;;;37.31;21.08
71151;BME280;59071;42.138;24.768;2023-05-24T09:56:24;99397.56;;;37.10;21.43
71151;BME280;59071;42.138;24.768;2023-05-24T09:58:50;99398.16;;;37.80;20.73
71151;BME280;59071;42.138;24.768;2023-05-24T10:01:15;99399.72;;;38.13;20.08
71151;BME280;59071;42.138;24.768;2023-05-24T10:06:17;99393.78;;;37.79;20.42
71151;BME280;59071;42.138;24.768;2023-05-24T10:08:43;99381.44;;;38.30;20.26
71151;BME280;59071;42.138;24.768;2023-05-24T10:11:08;99398.03;;;38.66;19.60
71151;BME280;59071;42.138;24.768;2023-05-24T10:13:34;99397.16;;;38.87;19.54
71151;BME280;59071;42.138;24.768;2023-05-24T10:16:00;99385.44;;;38.37;19.42
71151;BME280;59071;42.138;24.768;2023-05-24T10:18:25;99393.38;;;37.88;19.79
71151;BME280;59071;42.138;24.768;2023-05-24T10:20:50;99391.34;;;36.47;20.97
71151;BME280;59071;42.138;24.768;2023-05-24T10:23:18;99385.94;;;36.72;20.72
71151;BME280;59071;42.138;24.768;2023-05-24T10:25:46;99394.00;;;37.02;21.20
71151;BME280;59071;42.138;24.768;2023-05-24T10:28:14;99384.34;;;36.67;20.54
71151;BME280;59071;42.138;24.768;2023-05-24T10:33:39;99378.50;;;36.97;20.56
71151;BME280;59071;42.138;24.768;2023-05-24T10:36:06;99378.94;;;37.07;20.87
71151;BME280;59071;42.138;24.768;2023-05-24T10:38:33;99373.50;;;37.25;21.23
71151;BME280;59071;42.138;24.768;2023-05-24T10:41:01;99368.81;;;37.65;20.94
71151;BME280;59071;42.138;24.768;2023-05-24T10:43:26;99373.47;;;37.21;20.79
71151;BME280;59071;42.138;24.768;2023-05-24T10:45:51;99369.13;;;36.36;21.72
71151;BME280;59071;42.138;24.768;2023-05-24T10:50:48;99361.53;;;34.38;23.88
71151;BME280;59071;42.138;24.768;2023-05-24T10:53:17;99357.72;;;34.46;24.36
71151;BME280;59071;42.138;24.768;2023-05-24T10:55:52;99348.66;;;34.19;23.48
71151;BME280;59071;42.138;24.768;2023-05-24T10:58:18;99350.53;;;34.42;23.40
71151;BME280;59071;42.138;24.768;2023-05-24T11:00:44;99338.81;;;35.16;22.43
71151;BME280;59071;42.138;24.768;2023-05-24T11:03:10;99347.50;;;35.52;22.70
71151;BME280;59071;42.138;24.768;2023-05-24T11:08:11;99340.94;;;35.68;21.63
71151;BME280;59071;42.138;24.768;2023-05-24T11:10:37;99335.59;;;35.96;21.68
71151;BME280;59071;42.138;24.768;2023-05-24T11:13:06;99339.44;;;36.33;21.29
71151;BME280;59071;42.138;24.768;2023-05-24T11:15:32;99336.19;;;35.27;22.46
71151;BME280;59071;42.138;24.768;2023-05-24T11:20:38;99336.25;;;36.27;21.84
71151;BME280;59071;42.138;24.768;2023-05-24T11:23:06;99341.72;;;36.20;21.91
71151;BME280;59071;42.138;24.768;2023-05-24T11:25:33;99331.06;;;34.61;23.00
71151;BME280;59071;42.138;24.768;2023-05-24T11:28:00;99332.94;;;34.23;23.73
71151;BME280;59071;42.138;24.768;2023-05-24T11:30:26;99333.44;;;34.06;23.22
71151;BME280;59071;42.138;24.768;2023-05-24T11:32:52;99331.47;;;34.94;23.21
71151;BME280;59071;42.138;24.768;2023-05-24T11:35:20;99331.91;;;35.33;22.24
71151;BME280;59071;42.138;24.768;2023-05-24T11:37:47;99332.53;;;35.57;21.63
71151;BME280;59071;42.138;24.768;2023-05-24T11:40:12;99337.44;;;35.74;22.01
71151;BME280;59071;42.138;24.768;2023-05-24T11:42:37;99329.25;;;35.44;21.21
71151;BME280;59071;42.138;24.768;2023-05-24T11:45:03;99332.09;;;36.03;20.93
71151;BME280;59071;42.138;24.768;2023-05-24T11:47:33;99338.00;;;35.50;21.99
71151;BME280;59071;42.138;24.768;2023-05-24T11:49:59;99339.28;;;34.01;24.23
71151;BME280;59071;42.138;24.768;2023-05-24T11:52:25;99340.53;;;33.34;25.16
71151;BME280;59071;42.138;24.768;2023-05-24T11:54:50;99338.59;;;32.57;25.71
71151;BME280;59071;42.138;24.768;2023-05-24T11:57:15;99342.69;;;32.27;26.57
71151;BME280;59071;42.138;24.768;2023-05-24T11:59:43;99324.06;;;32.05;26.64
71151;BME280;59071;42.138;24.768;2023-05-24T12:02:08;99314.81;;;32.13;26.49
71151;BME280;59071;42.138;24.768;2023-05-24T12:04:34;99307.66;;;32.63;25.83
71151;BME280;59071;42.138;24.768;2023-05-24T12:06:59;99305.56;;;32.76;25.72
71151;BME280;59071;42.138;24.768;2023-05-24T12:09:25;99297.72;;;33.63;24.55
71151;BME280;59071;42.138;24.768;2023-05-24T12:11:51;99293.53;;;33.73;25.25
71151;BME280;59071;42.138;24.768;2023-05-24T12:14:17;99289.03;;;32.76;25.00
71151;BME280;59071;42.138;24.768;2023-05-24T12:16:43;99275.72;;;33.44;24.51
71151;BME280;59071;42.138;24.768;2023-05-24T12:19:15;99279.75;;;33.50;24.14
71151;BME280;59071;42.138;24.768;2023-05-24T12:21:40;99276.78;;;33.85;23.28
71151;BME280;59071;42.138;24.768;2023-05-24T12:24:12;99275.06;;;33.77;24.49
71151;BME280;59071;42.138;24.768;2023-05-24T12:26:46;99268.69;;;34.26;23.15
71151;BME280;59071;42.138;24.768;2023-05-24T12:29:11;99271.47;;;34.00;23.14
71151;BME280;59071;42.138;24.768;2023-05-24T12:31:40;99274.03;;;33.16;23.20
71151;BME280;59071;42.138;24.768;2023-05-24T12:34:06;99272.97;;;32.23;24.23
71151;BME280;59071;42.138;24.768;2023-05-24T12:36:34;99277.75;;;32.26;24.54
71151;BME280;59071;42.138;24.768;2023-05-24T12:39:04;99278.63;;;31.79;24.94
71151;BME280;59071;42.138;24.768;2023-05-24T12:41:29;99271.25;;;31.99;24.15
71151;BME280;59071;42.138;24.768;2023-05-24T12:43:55;99262.84;;;31.92;24.71
71151;BME280;59071;42.138;24.768;2023-05-24T12:46:21;99272.53;;;32.57;24.10
71151;BME280;59071;42.138;24.768;2023-05-24T12:48:46;99267.84;;;32.80;23.57
71151;BME280;59071;42.138;24.768;2023-05-24T12:51:12;99268.03;;;32.68;23.45
71151;BME280;59071;42.138;24.768;2023-05-24T12:53:37;99275.19;;;31.82;24.83
71151;BME280;59071;42.138;24.768;2023-05-24T12:56:02;99277.50;;;32.51;23.92
71151;BME280;59071;42.138;24.768;2023-05-24T12:58:28;99277.06;;;32.29;23.74
71151;BME280;59071;42.138;24.768;2023-05-24T13:00:53;99274.53;;;32.79;23.51
71151;BME280;59071;42.138;24.768;2023-05-24T13:03:19;99269.78;;;33.19;23.56
71151;BME280;59071;42.138;24.768;2023-05-24T13:05:44;99275.25;;;32.76;24.00
71151;BME280;59071;42.138;24.768;2023-05-24T13:08:11;99274.25;;;32.65;23.77
71151;BME280;59071;42.138;24.768;2023-05-24T13:10:36;99265.38;;;32.95;22.86
71151;BME280;59071;42.138;24.768;2023-05-24T13:13:01;99269.16;;;32.67;23.40
71151;BME280;59071;42.138;24.768;2023-05-24T13:15:27;99266.09;;;33.11;23.08
71151;BME280;59071;42.138;24.768;2023-05-24T13:17:52;99260.75;;;33.45;23.10
71151;BME280;59071;42.138;24.768;2023-05-24T13:20:18;99260.19;;;33.36;22.93